Terminal Aerodrome Forecast
Issued by NWS Chicago, IL

Home | Current Version | Previous Version | Graphics & Text | Print | Product List | Glossary On
Versions: 1 2 3 4 5 6 7 8 9 10 11 12 13 14 15 16 17 18 19 20 21 22 23 24
250
FTUS43 KLOT 252228 AAD
TAFRFD
TAF AMD
KRFD 252228Z 2522/2618 26012G18KT P6SM SCT030 BKN045
     FM260000 28012G17KT P6SM SCT050 BKN120 BKN180
      TEMPO 2601/2604 -RA BKN050=

USA.gov is the U.S. government's official web portal to all federal, state and local government web resources and services.